Time;durP1;ratioP1;P1;durP2;ratioP2;P2;SDS_P1;SDS_P2;PMS_P1;PMS_P2;Temp;Humidity;BMP_temperature;BMP_pressure;BME280_temperature;BME280_humidity;BME280_pressure;Samples;Min_cycle;Max_cycle;Signal;HPM_P1;HPM_P2
2023/06/22 00:00:11;;;;;;;3.20;2.90;;;;;;;25.10;55.65;100889.13;4514250;28;20029;-65
2023/06/22 00:02:22;;;;;;;3.30;3.00;;;;;;;25.08;55.58;100891.56;4506942;28;20048;-65
2023/06/22 00:04:33;;;;;;;3.10;2.80;;;;;;;25.07;55.88;100882.06;4508059;28;20042;-65
2023/06/22 00:06:43;;;;;;;3.00;2.80;;;;;;;25.10;55.88;100883.38;4508738;28;20683;-65
2023/06/22 00:08:53;;;;;;;3.30;3.00;;;;;;;25.04;55.90;100875.03;4510427;28;20064;-65
2023/06/22 00:11:04;;;;;;;3.20;2.90;;;;;;;25.12;55.92;100892.47;4514845;28;20064;-65
2023/06/22 00:13:15;;;;;;;2.90;2.70;;;;;;;25.11;55.97;100879.25;4509468;28;20900;-65
2023/06/22 00:15:26;;;;;;;3.33;3.00;;;;;;;25.10;56.18;100874.69;4509006;28;20797;-65
2023/06/22 00:17:36;;;;;;;3.47;3.15;;;;;;;25.10;55.98;100866.88;4514468;28;20059;-65
2023/06/22 00:19:47;;;;;;;3.45;3.15;;;;;;;25.10;56.37;100868.91;4509493;28;20038;-65
2023/06/22 00:22:00;;;;;;;3.50;3.20;;;;;;;25.08;56.18;100857.75;4512658;28;20559;-65
2023/06/22 00:24:10;;;;;;;3.13;2.85;;;;;;;24.98;56.07;100836.16;4514073;28;20056;-65
2023/06/22 00:26:21;;;;;;;2.85;2.60;;;;;;;25.04;56.21;100830.88;4507036;28;20033;-65
2023/06/22 00:28:31;;;;;;;3.47;2.78;;;;;;;25.08;56.40;100845.34;4509369;28;20034;-66
2023/06/22 00:30:42;;;;;;;3.50;3.03;;;;;;;25.08;56.27;100840.44;4508570;28;20084;-65
2023/06/22 00:32:52;;;;;;;2.92;2.50;;;;;;;25.08;56.16;100838.34;4510679;28;20492;-65
2023/06/22 00:35:03;;;;;;;3.33;2.38;;;;;;;25.08;56.17;100834.66;4507882;28;20663;-65
2023/06/22 00:37:14;;;;;;;3.05;2.85;;;;;;;25.08;55.74;100841.25;4505109;28;20984;-65
2023/06/22 00:39:24;;;;;;;2.72;2.53;;;;;;;25.11;56.03;100847.47;4508137;28;20037;-65
2023/06/22 00:41:35;;;;;;;4.82;3.03;;;;;;;25.07;55.99;100829.25;4508594;28;20117;-64
2023/06/22 00:43:45;;;;;;;3.30;3.00;;;;;;;25.08;55.98;100835.47;4505603;28;20018;-65
2023/06/22 00:45:56;;;;;;;3.28;2.97;;;;;;;25.10;55.81;100838.00;4513811;28;20041;-65
2023/06/22 00:48:07;;;;;;;2.75;2.55;;;;;;;25.08;55.97;100828.03;4507932;28;20064;-65
2023/06/22 00:50:20;;;;;;;3.17;2.88;;;;;;;25.07;55.71;100830.06;4509270;28;21318;-65
2023/06/22 00:52:33;;;;;;;3.00;2.75;;;;;;;25.08;55.90;100830.91;4507155;28;20545;-65
2023/06/22 00:54:45;;;;;;;3.00;2.72;;;;;;;25.07;55.87;100835.03;4508853;28;20079;-65
2023/06/22 00:56:57;;;;;;;3.38;3.05;;;;;;;25.08;56.01;100833.81;4508440;28;20041;-65
2023/06/22 00:59:12;;;;;;;3.40;3.10;;;;;;;25.07;56.09;100829.25;4518856;28;20128;-65
2023/06/22 01:01:22;;;;;;;3.15;2.88;;;;;;;25.08;56.08;100823.91;4506266;28;20041;-65
2023/06/22 01:03:33;;;;;;;3.35;3.05;;;;;;;25.10;55.58;100828.47;4507916;28;20034;-65
2023/06/22 01:05:46;;;;;;;3.08;2.88;;;;;;;25.08;55.74;100821.03;4509289;28;20389;-65
2023/06/22 01:08:20;;;;;;;3.50;3.20;;;;;;;25.07;55.74;100821.41;4515515;28;20598;-65
2023/06/22 01:11:16;;;;;;;3.30;3.00;;;;;;;25.13;55.94;100831.41;4507933;28;20030;-65
2023/06/22 01:13:42;;;;;;;3.38;3.05;;;;;;;25.14;55.93;100840.91;4426937;28;20089;-65
2023/06/22 01:16:00;;;;;;;3.08;2.88;;;;;;;25.12;55.76;100834.72;4491805;28;20050;-65
2023/06/22 01:18:13;;;;;;;3.58;3.20;;;;;;;25.05;56.16;100827.59;4510705;28;20638;-65
2023/06/22 01:20:26;;;;;;;3.67;3.38;;;;;;;25.09;56.12;100824.75;4511821;28;20033;-65
2023/06/22 01:23:16;;;;;;;3.25;2.95;;;;;;;25.12;56.45;100831.81;4510682;28;20037;-66
2023/06/22 01:25:31;;;;;;;3.88;2.90;;;;;;;25.08;56.33;100832.56;4511460;28;20142;-66
2023/06/22 01:27:54;;;;;;;3.53;3.22;;;;;;;25.12;56.05;100828.94;4511734;28;20037;-65
2023/06/22 01:30:22;;;;;;;3.40;3.10;;;;;;;25.12;56.28;100831.81;4510773;28;20037;-65
2023/06/22 01:32:35;;;;;;;3.92;2.90;;;;;;;25.13;56.21;100828.53;4509024;28;20105;-65
2023/06/22 01:34:47;;;;;;;3.25;2.95;;;;;;;25.10;56.18;100826.44;4509738;28;20037;-65
2023/06/22 01:36:58;;;;;;;3.05;2.85;;;;;;;25.05;56.03;100823.88;4511570;28;20040;-66
2023/06/22 01:39:10;;;;;;;3.80;3.22;;;;;;;25.14;56.16;100838.00;4512059;28;20143;-65
2023/06/22 01:41:22;;;;;;;3.47;3.15;;;;;;;25.10;56.13;100828.47;4510802;28;20646;-65
2023/06/22 01:43:33;;;;;;;3.65;3.28;;;;;;;25.12;56.32;100834.72;4509965;28;20041;-65
2023/06/22 01:45:44;;;;;;;3.25;2.95;;;;;;;25.12;56.11;100828.94;4511288;28;20034;-65
2023/06/22 01:47:55;;;;;;;3.67;2.90;;;;;;;25.11;55.95;100833.03;4509358;28;20234;-65
2023/06/22 01:50:06;;;;;;;3.10;2.90;;;;;;;25.08;56.07;100822.25;4510057;28;20048;-65
2023/06/22 01:52:18;;;;;;;3.30;3.00;;;;;;;25.11;55.89;100833.03;4510853;28;20033;-65
2023/06/22 01:54:29;;;;;;;3.72;3.15;;;;;;;25.08;55.84;100828.03;4508933;28;20030;-65
2023/06/22 01:56:39;;;;;;;5.07;3.00;;;;;;;25.09;56.20;100824.75;4508505;28;21208;-66
2023/06/22 01:58:59;;;;;;;2.85;2.65;;;;;;;25.05;56.11;100824.69;4518291;28;20037;-65
2023/06/22 02:01:12;;;;;;;5.15;3.10;;;;;;;25.11;55.87;100827.25;4509716;28;20177;-65
2023/06/22 02:03:31;;;;;;;3.20;2.90;;;;;;;25.06;55.78;100822.66;4511165;28;20042;-65
2023/06/22 02:05:49;;;;;;;3.22;2.92;;;;;;;25.12;56.02;100834.72;4509375;28;20113;-65
2023/06/22 02:08:11;;;;;;;3.35;3.03;;;;;;;25.13;55.98;100842.13;4509329;28;20038;-65
2023/06/22 02:10:24;;;;;;;2.97;2.78;;;;;;;25.12;55.63;100843.38;4510474;28;20038;-65
2023/06/22 02:12:36;;;;;;;3.55;3.25;;;;;;;25.12;56.05;100840.47;4511492;28;21071;-65
2023/06/22 02:14:47;;;;;;;3.58;3.28;;;;;;;25.12;56.26;100846.25;4509498;28;20037;-65
2023/06/22 02:17:01;;;;;;;4.25;2.75;;;;;;;25.11;56.13;100838.78;4508928;28;20128;-65
2023/06/22 02:19:11;;;;;;;3.00;2.72;;;;;;;25.08;56.22;100838.34;4527664;28;20029;-65
2023/06/22 02:21:21;;;;;;;2.92;2.70;;;;;;;25.12;56.19;100849.97;4510148;28;20033;-65
2023/06/22 02:23:35;;;;;;;3.80;3.00;;;;;;;25.09;55.99;100839.19;4510941;28;20532;-65
2023/06/22 02:25:46;;;;;;;3.28;2.97;;;;;;;25.00;55.99;100830.00;4510475;28;20029;-66
2023/06/22 02:27:56;;;;;;;3.22;2.92;;;;;;;25.11;56.00;100859.84;4505792;28;20493;-65
2023/06/22 02:30:09;;;;;;;3.30;3.00;;;;;;;25.12;56.00;100852.03;4509327;28;20029;-65
2023/06/22 02:32:19;;;;;;;3.25;3.00;;;;;;;25.11;56.07;100844.56;4508647;28;20045;-66
2023/06/22 02:34:33;;;;;;;3.28;2.95;;;;;;;25.07;56.08;100841.63;4510495;28;20053;-65
2023/06/22 02:36:50;;;;;;;3.53;3.22;;;;;;;25.08;56.24;100847.00;4511072;28;20384;-65
2023/06/22 02:39:03;;;;;;;3.35;2.83;;;;;;;25.12;56.40;100852.03;4511298;28;20630;-65
2023/06/22 02:41:18;;;;;;;3.20;2.90;;;;;;;25.05;56.41;100842.03;4510463;28;20053;-65
2023/06/22 02:43:28;;;;;;;3.05;2.75;;;;;;;25.09;56.08;100842.06;4509465;28;20034;-66
2023/06/22 02:45:39;;;;;;;3.35;2.90;;;;;;;25.11;56.34;100841.69;4510351;28;20065;-65
2023/06/22 02:47:50;;;;;;;3.17;2.95;;;;;;;25.02;56.29;100831.25;4516205;28;20063;-65
2023/06/22 02:50:01;;;;;;;3.00;2.80;;;;;;;25.11;56.35;100842.53;4510499;28;20041;-65
2023/06/22 02:52:11;;;;;;;4.40;2.90;;;;;;;25.11;56.26;100838.78;4510054;28;20085;-65
2023/06/22 02:54:22;;;;;;;4.85;3.13;;;;;;;25.11;56.37;100839.63;4520640;28;20445;-66
2023/06/22 02:56:36;;;;;;;3.25;3.00;;;;;;;25.07;56.78;100835.03;4507473;28;20038;-65
2023/06/22 02:58:46;;;;;;;3.53;2.90;;;;;;;25.04;56.64;100820.16;4511785;28;20044;-65
2023/06/22 03:00:57;;;;;;;3.50;3.20;;;;;;;25.11;56.52;100827.25;4514334;28;20095;-65
2023/06/22 03:03:07;;;;;;;3.08;2.78;;;;;;;25.04;56.83;100823.03;4508123;28;20484;-65
2023/06/22 03:05:18;;;;;;;3.58;2.92;;;;;;;25.08;56.51;100831.75;4507499;28;20044;-65
2023/06/22 03:07:30;;;;;;;3.17;2.88;;;;;;;25.08;56.50;100825.16;4524919;28;20037;-65
2023/06/22 03:09:42;;;;;;;3.38;3.00;;;;;;;25.10;56.57;100825.59;4509703;28;20041;-66
2023/06/22 03:11:53;;;;;;;3.53;3.22;;;;;;;25.10;56.74;100826.44;4514655;28;20034;-66
2023/06/22 03:14:05;;;;;;;3.83;2.80;;;;;;;25.07;56.69;100815.63;4509002;28;20033;-65
2023/06/22 03:16:15;;;;;;;3.80;2.90;;;;;;;25.08;56.47;100823.91;4509824;28;20038;-67
2023/06/22 03:18:26;;;;;;;3.38;3.08;;;;;;;25.06;56.40;100813.97;4515119;28;20037;-66
2023/06/22 03:20:36;;;;;;;3.53;3.20;;;;;;;25.07;56.23;100821.41;4512613;28;20026;-66
2023/06/22 03:22:48;;;;;;;3.40;3.10;;;;;;;25.05;56.34;100813.13;4510367;28;20037;-66
2023/06/22 03:24:59;;;;;;;3.30;3.00;;;;;;;25.02;56.59;100805.25;4509404;28;20137;-66
2023/06/22 03:27:10;;;;;;;4.07;3.10;;;;;;;25.04;56.54;100810.66;4508314;28;20796;-66
2023/06/22 03:29:20;;;;;;;3.30;3.00;;;;;;;25.03;56.82;100798.28;4514725;28;20068;-66
2023/06/22 03:31:31;;;;;;;3.50;3.08;;;;;;;25.02;56.63;100808.16;4508122;28;20052;-66
2023/06/22 03:33:42;;;;;;;3.47;3.17;;;;;;;25.01;56.46;100805.66;4509377;28;20409;-66
2023/06/22 03:35:53;;;;;;;3.92;2.92;;;;;;;25.00;56.58;100813.50;4508614;28;21089;-66
2023/06/22 03:38:05;;;;;;;3.88;3.30;;;;;;;24.96;56.43;100803.94;4507428;28;20124;-66
2023/06/22 03:40:15;;;;;;;3.72;3.00;;;;;;;24.97;56.31;100799.81;4524288;28;20037;-66
2023/06/22 03:42:26;;;;;;;3.65;3.00;;;;;;;24.97;56.44;100799.03;4509702;28;20072;-66
2023/06/22 03:44:36;;;;;;;3.10;2.90;;;;;;;24.98;56.85;100801.50;4510796;28;20318;-66
2023/06/22 03:46:49;;;;;;;3.65;3.35;;;;;;;24.98;56.84;100804.41;4507476;28;21075;-66
2023/06/22 03:49:02;;;;;;;3.78;3.47;;;;;;;24.97;56.95;100802.72;4509886;28;20045;-66
2023/06/22 03:51:13;;;;;;;4.25;3.40;;;;;;;24.96;57.25;100803.94;4502977;28;20065;-66
2023/06/22 03:53:23;;;;;;;3.65;3.35;;;;;;;24.97;57.08;100808.50;4512429;28;20136;-66
2023/06/22 03:55:34;;;;;;;4.15;3.75;;;;;;;24.99;57.02;100811.00;4510754;28;20048;-66
2023/06/22 03:57:45;;;;;;;5.07;3.40;;;;;;;24.94;57.51;100809.28;4508740;28;20045;-66
2023/06/22 03:59:57;;;;;;;4.05;3.70;;;;;;;24.97;57.04;100814.28;4509536;28;20117;-66
2023/06/22 04:02:08;;;;;;;3.85;3.55;;;;;;;24.96;57.28;100814.66;4506813;28;20148;-66
2023/06/22 04:04:19;;;;;;;3.80;3.40;;;;;;;24.98;56.95;100807.28;4506451;28;20068;-66
2023/06/22 04:06:29;;;;;;;3.75;3.45;;;;;;;24.97;57.18;100805.59;4509161;28;20505;-66
2023/06/22 04:08:40;;;;;;;4.20;3.90;;;;;;;25.01;57.66;100815.16;4508992;28;20506;-66
2023/06/22 04:10:51;;;;;;;4.50;3.90;;;;;;;25.01;57.46;100823.84;4510534;28;20168;-66
2023/06/22 04:13:01;;;;;;;4.60;4.20;;;;;;;24.94;57.44;100815.06;4509201;28;20046;-66
2023/06/22 04:15:12;;;;;;;4.30;3.90;;;;;;;24.94;57.69;100820.84;4507138;28;20046;-66
2023/06/22 04:17:24;;;;;;;4.60;4.10;;;;;;;24.97;57.69;100817.16;4506886;28;20072;-66
2023/06/22 04:19:35;;;;;;;4.60;4.20;;;;;;;24.96;57.46;100820.44;4509147;28;20044;-66
2023/06/22 04:21:48;;;;;;;4.45;4.05;;;;;;;24.95;57.65;100818.78;4510462;28;20529;-66
2023/06/22 04:23:58;;;;;;;4.65;4.07;;;;;;;24.95;57.82;100818.78;4509007;28;20030;-67
2023/06/22 04:26:09;;;;;;;4.75;4.30;;;;;;;24.93;57.91;100813.41;4508451;28;20030;-66
2023/06/22 04:28:19;;;;;;;4.32;3.92;;;;;;;24.92;57.73;100813.78;4509183;28;20021;-66
2023/06/22 04:30:31;;;;;;;4.13;3.83;;;;;;;24.94;57.87;100820.84;4509350;28;20033;-66
2023/06/22 04:32:43;;;;;;;4.13;3.83;;;;;;;24.95;58.10;100815.91;4509492;28;20741;-66
2023/06/22 04:34:53;;;;;;;4.90;4.40;;;;;;;24.92;58.17;100814.63;4507776;28;20156;-66
2023/06/22 04:37:04;;;;;;;4.38;3.97;;;;;;;24.90;58.03;100799.75;4513662;28;20125;-67
2023/06/22 04:39:15;;;;;;;5.30;4.80;;;;;;;24.95;58.08;100810.97;4507935;28;20048;-66
2023/06/22 04:41:25;;;;;;;4.60;4.20;;;;;;;24.78;58.11;100778.97;4506972;28;20215;-66
2023/06/22 04:43:35;;;;;;;4.70;4.30;;;;;;;24.80;58.12;100776.53;4509299;28;20736;-67
2023/06/22 04:45:46;;;;;;;5.38;4.20;;;;;;;24.94;58.37;100796.91;4508290;28;20285;-66
2023/06/22 04:47:56;;;;;;;4.72;4.32;;;;;;;24.89;58.34;100789.41;4507622;28;20045;-66
2023/06/22 04:50:07;;;;;;;4.97;4.57;;;;;;;24.95;58.33;100795.69;4508842;28;20088;-67
2023/06/22 04:52:20;;;;;;;5.07;4.68;;;;;;;24.90;58.40;100793.97;4511279;28;20041;-67
2023/06/22 04:54:34;;;;;;;5.00;4.50;;;;;;;24.94;58.22;100794.03;4512104;28;20033;-66
2023/06/22 04:56:46;;;;;;;5.22;4.45;;;;;;;24.93;58.33;100787.41;4513598;28;20047;-66
2023/06/22 04:58:57;;;;;;;4.85;4.43;;;;;;;24.95;58.78;100796.53;4513271;28;20135;-66
2023/06/22 05:01:08;;;;;;;4.97;4.55;;;;;;;24.88;58.87;100784.03;4512139;28;20041;-66
2023/06/22 05:03:19;;;;;;;5.45;4.95;;;;;;;24.92;58.89;100794.44;4511478;28;20912;-66
2023/06/22 05:05:29;;;;;;;5.13;4.72;;;;;;;24.86;59.13;100787.31;4514124;28;20068;-66
2023/06/22 05:07:44;;;;;;;5.68;5.18;;;;;;;24.95;59.17;100805.19;4513677;28;20030;-66
2023/06/22 05:09:54;;;;;;;4.93;4.53;;;;;;;24.91;59.25;100795.63;4513931;28;20177;-66
2023/06/22 05:12:05;;;;;;;6.35;5.13;;;;;;;24.91;59.62;100807.19;4510561;28;20041;-66
2023/06/22 05:14:16;;;;;;;5.75;5.25;;;;;;;24.90;59.77;100805.53;4510984;28;20072;-66
2023/06/22 05:16:27;;;;;;;6.07;5.50;;;;;;;24.84;59.72;100789.78;4510872;28;20557;-66
2023/06/22 05:18:37;;;;;;;6.00;5.40;;;;;;;24.86;60.08;100801.75;4508425;28;20597;-65
2023/06/22 05:20:48;;;;;;;5.47;4.90;;;;;;;24.85;60.14;100805.03;4512005;28;20042;-67
2023/06/22 05:22:58;;;;;;;5.80;5.30;;;;;;;24.88;60.23;100805.06;4511054;28;20135;-66
2023/06/22 05:25:10;;;;;;;6.13;5.53;;;;;;;24.89;60.27;100803.03;4511117;28;20028;-66
2023/06/22 05:27:21;;;;;;;5.88;5.38;;;;;;;24.83;59.83;100781.50;4511099;28;20033;-66
2023/06/22 05:29:31;;;;;;;6.05;5.55;;;;;;;24.84;60.21;100792.66;4511131;28;20037;-66
2023/06/22 05:31:42;;;;;;;5.80;5.30;;;;;;;24.88;60.36;100795.56;4512623;28;20146;-66
2023/06/22 05:33:54;;;;;;;5.82;5.30;;;;;;;24.85;60.43;100791.44;4512455;28;21591;-66
2023/06/22 05:36:05;;;;;;;5.70;5.20;;;;;;;24.87;60.48;100793.91;4512748;28;20045;-66
2023/06/22 05:38:15;;;;;;;5.45;4.95;;;;;;;24.73;60.41;100783.03;4524565;28;20048;-67
2023/06/22 05:40:27;;;;;;;6.10;5.50;;;;;;;24.85;60.52;100800.09;4512139;28;20304;-66
2023/06/22 05:42:37;;;;;;;5.85;5.25;;;;;;;24.87;60.27;100812.09;4513655;28;20092;-66
2023/06/22 05:44:47;;;;;;;5.68;5.18;;;;;;;24.78;60.17;100796.28;4511818;28;20142;-66
2023/06/22 05:46:58;;;;;;;5.72;5.13;;;;;;;24.84;60.55;100804.22;4513769;28;20025;-66
2023/06/22 05:49:08;;;;;;;5.70;5.15;;;;;;;24.88;60.61;100812.91;4512413;28;20037;-66
2023/06/22 05:51:19;;;;;;;5.53;5.07;;;;;;;24.90;60.35;100814.19;4499267;28;20129;-66
2023/06/22 05:53:29;;;;;;;5.60;5.10;;;;;;;24.87;61.10;100822.78;4513342;28;20608;-67
2023/06/22 05:55:40;;;;;;;5.45;5.05;;;;;;;24.89;60.45;100826.94;4508377;28;20080;-64
2023/06/22 05:57:50;;;;;;;5.82;5.32;;;;;;;24.88;60.67;100828.19;4510873;28;20544;-64
2023/06/22 06:00:01;;;;;;;5.68;5.13;;;;;;;24.88;60.74;100831.06;4510830;28;20466;-64
2023/06/22 06:02:11;;;;;;;5.50;5.00;;;;;;;24.90;60.79;100840.19;4509153;28;20050;-64
2023/06/22 06:04:22;;;;;;;5.30;4.80;;;;;;;24.82;60.85;100832.63;4509043;28;20034;-64
2023/06/22 06:06:36;;;;;;;5.57;5.07;;;;;;;24.89;61.08;100838.50;4509183;28;20034;-64
2023/06/22 06:08:47;;;;;;;5.57;5.07;;;;;;;24.89;61.27;100838.50;4508221;28;20092;-64
2023/06/22 06:10:58;;;;;;;5.10;4.70;;;;;;;24.85;61.18;100836.78;4509659;28;20040;-64
2023/06/22 06:13:08;;;;;;;4.88;4.45;;;;;;;24.91;60.95;100838.13;4509331;28;21444;-65
2023/06/22 06:15:19;;;;;;;5.10;4.60;;;;;;;24.83;61.00;100837.19;4509518;28;20124;-65
2023/06/22 06:17:29;;;;;;;5.50;5.00;;;;;;;24.85;60.87;100859.88;4509081;28;20072;-65
2023/06/22 06:19:40;;;;;;;4.90;4.40;;;;;;;24.85;60.96;100851.22;4510499;28;20042;-65
2023/06/22 06:21:51;;;;;;;5.32;4.82;;;;;;;24.85;61.20;100854.09;4510020;28;20128;-63
2023/06/22 06:24:02;;;;;;;5.00;4.60;;;;;;;24.78;60.89;100837.50;4508733;28;20033;-63
2023/06/22 06:26:15;;;;;;;4.57;4.18;;;;;;;24.90;61.06;100850.88;4497506;28;20751;-63
2023/06/22 06:28:25;;;;;;;4.47;4.07;;;;;;;24.96;60.94;100855.94;4515105;28;20030;-62
2023/06/22 06:30:37;;;;;;;4.40;4.00;;;;;;;25.01;60.70;100851.88;4509482;28;20116;-62
2023/06/22 06:32:47;;;;;;;4.90;4.50;;;;;;;24.97;61.42;100856.78;4509696;28;20755;-62
2023/06/22 06:34:58;;;;;;;4.95;4.55;;;;;;;24.91;61.40;100850.50;4510666;28;20025;-62
2023/06/22 06:37:08;;;;;;;4.82;4.43;;;;;;;24.98;61.17;100850.59;4508891;28;20069;-63
2023/06/22 06:39:20;;;;;;;4.85;4.45;;;;;;;24.93;61.39;100845.16;4509028;28;20037;-62
2023/06/22 06:41:30;;;;;;;5.20;4.70;;;;;;;24.90;61.41;100839.34;4511434;28;20559;-62
2023/06/22 06:43:43;;;;;;;5.00;4.50;;;;;;;24.81;61.41;100839.66;4511341;28;20034;-63
2023/06/22 06:45:53;;;;;;;4.43;4.03;;;;;;;24.86;61.64;100844.25;4509681;28;20072;-62
2023/06/22 06:48:04;;;;;;;5.10;4.60;;;;;;;24.74;62.24;100836.63;4515806;28;20540;-62
2023/06/22 06:50:14;;;;;;;5.53;4.93;;;;;;;24.72;62.54;100827.53;4503705;28;20046;-62
2023/06/22 06:52:25;;;;;;;4.93;4.53;;;;;;;24.71;62.09;100837.41;4508003;28;20115;-62
2023/06/22 06:54:35;;;;;;;5.15;4.68;;;;;;;24.73;62.20;100845.69;4511046;28;20599;-62
2023/06/22 06:56:47;;;;;;;4.90;4.50;;;;;;;24.71;62.06;100843.19;4508187;28;20759;-62
2023/06/22 06:58:58;;;;;;;5.15;4.75;;;;;;;24.68;62.43;100838.22;4511671;28;21186;-61
2023/06/22 07:01:09;;;;;;;4.88;4.47;;;;;;;24.67;62.74;100836.53;4504228;28;20048;-61
2023/06/22 07:03:19;;;;;;;5.03;4.53;;;;;;;24.62;62.80;100824.47;4509083;28;20080;-61
2023/06/22 07:05:29;;;;;;;5.32;4.82;;;;;;;24.54;62.62;100814.88;4509042;28;20481;-61
2023/06/22 07:07:41;;;;;;;5.47;4.97;;;;;;;24.63;62.58;100829.00;4509964;28;20076;-61
2023/06/22 07:09:51;;;;;;;5.15;4.70;;;;;;;24.64;62.81;100825.72;4508289;28;20034;-61
2023/06/22 07:12:02;;;;;;;5.38;4.88;;;;;;;24.61;62.80;100829.41;4509449;28;20526;-61
2023/06/22 07:14:12;;;;;;;5.70;5.20;;;;;;;24.59;63.26;100823.16;4509229;28;20053;-61
2023/06/22 07:16:25;;;;;;;5.28;4.78;;;;;;;24.58;63.46;100820.69;4509764;28;20033;-61
2023/06/22 07:18:35;;;;;;;4.50;4.10;;;;;;;24.57;63.46;100805.44;4510148;28;20037;-61
2023/06/22 07:20:45;;;;;;;5.10;4.60;;;;;;;24.53;63.92;100804.53;4510567;28;20026;-60
2023/06/22 07:22:56;;;;;;;5.15;4.70;;;;;;;24.57;64.10;100799.66;4509592;28;20038;-61
2023/06/22 07:25:13;;;;;;;5.65;4.75;;;;;;;24.57;64.27;100810.38;4510346;28;20032;-61
2023/06/22 07:27:24;;;;;;;4.97;4.57;;;;;;;24.52;64.62;100805.75;4509681;28;20044;-61
2023/06/22 07:29:36;;;;;;;5.28;4.78;;;;;;;24.56;64.82;100808.72;4507430;28;20509;-63
2023/06/22 07:31:47;;;;;;;5.20;4.75;;;;;;;24.56;64.63;100805.81;4509513;28;20045;-65
2023/06/22 07:33:57;;;;;;;5.57;5.07;;;;;;;24.54;64.56;100808.25;4508840;28;20120;-61
2023/06/22 07:36:08;;;;;;;5.10;4.60;;;;;;;24.47;64.60;100797.44;4509277;28;20042;-61
2023/06/22 07:38:18;;;;;;;4.57;4.18;;;;;;;24.53;64.64;100801.66;4515032;28;20104;-63
2023/06/22 07:40:29;;;;;;;4.75;4.35;;;;;;;24.48;65.14;100798.28;4507848;28;20040;-63
2023/06/22 07:42:39;;;;;;;5.22;4.75;;;;;;;24.41;64.83;100799.00;4508148;28;20416;-64
2023/06/22 07:44:50;;;;;;;4.93;4.43;;;;;;;24.40;64.88;100797.34;4514132;28;20032;-63
2023/06/22 07:47:01;;;;;;;4.00;3.67;;;;;;;24.43;64.80;100804.38;4507009;28;20075;-59
2023/06/22 07:49:11;;;;;;;5.10;4.60;;;;;;;24.40;65.15;100803.13;4508660;28;21116;-62
2023/06/22 07:51:22;;;;;;;5.32;4.82;;;;;;;24.37;65.83;100792.31;4507885;28;20107;-62
2023/06/22 07:53:32;;;;;;;5.40;4.90;;;;;;;24.40;65.87;100805.16;4508364;28;20037;-61
2023/06/22 07:55:43;;;;;;;4.65;4.25;;;;;;;24.40;65.60;100794.47;4522572;28;20044;-61
2023/06/22 07:57:53;;;;;;;4.78;4.38;;;;;;;24.39;65.31;100800.59;4507824;28;20026;-61
2023/06/22 08:00:15;;;;;;;5.28;4.80;;;;;;;24.35;65.33;100786.13;4506834;28;20038;-61
2023/06/22 08:02:27;;;;;;;5.22;4.72;;;;;;;24.33;65.13;100779.06;4512131;28;20075;-61
2023/06/22 08:04:37;;;;;;;4.63;4.22;;;;;;;24.31;65.17;100775.75;4507320;28;20448;-60
2023/06/22 08:06:48;;;;;;;4.50;4.10;;;;;;;24.16;65.64;100754.50;4507880;28;20524;-61
2023/06/22 08:08:59;;;;;;;4.70;4.30;;;;;;;24.24;66.04;100769.88;4508965;28;20034;-60
2023/06/22 08:11:10;;;;;;;4.88;4.47;;;;;;;24.26;66.25;100768.25;4508762;28;20501;-60
2023/06/22 08:13:20;;;;;;;5.00;4.50;;;;;;;24.24;66.10;100764.09;4508909;28;20063;-60
2023/06/22 08:15:30;;;;;;;5.20;4.70;;;;;;;24.21;66.22;100751.31;4509533;28;20069;-60
2023/06/22 08:17:41;;;;;;;5.07;4.68;;;;;;;24.18;66.12;100740.50;4508647;28;20941;-60
2023/06/22 08:19:52;;;;;;;5.22;4.50;;;;;;;24.19;66.64;100745.06;4507133;28;20093;-60
2023/06/22 08:22:02;;;;;;;5.00;4.50;;;;;;;24.20;67.13;100743.84;4508517;28;20053;-60
2023/06/22 08:24:12;;;;;;;4.88;4.43;;;;;;;24.21;66.51;100748.41;4509816;28;20098;-60
2023/06/22 08:26:23;;;;;;;4.90;4.40;;;;;;;24.21;66.69;100757.06;4506837;28;20034;-60
2023/06/22 08:28:33;;;;;;;4.40;4.00;;;;;;;24.22;65.68;100747.19;4506799;28;20041;-60
2023/06/22 08:30:44;;;;;;;4.57;4.18;;;;;;;24.23;65.79;100751.72;4507483;28;20037;-60
2023/06/22 08:32:55;;;;;;;4.72;4.32;;;;;;;24.24;66.18;100753.41;4507858;28;20042;-61
2023/06/22 08:35:08;;;;;;;4.82;4.43;;;;;;;24.20;66.32;100743.84;4507110;28;20041;-61
2023/06/22 08:37:19;;;;;;;4.43;4.03;;;;;;;24.22;66.60;100758.72;4507208;28;20038;-60
2023/06/22 08:39:30;;;;;;;4.40;4.00;;;;;;;24.23;67.30;100756.69;4508398;28;20125;-61
2023/06/22 08:41:40;;;;;;;4.53;4.13;;;;;;;24.24;67.32;100764.94;4507612;28;20033;-61
2023/06/22 08:43:50;;;;;;;4.57;4.03;;;;;;;24.22;66.83;100750.06;4508048;28;20477;-61
2023/06/22 08:46:02;;;;;;;4.70;4.30;;;;;;;24.22;66.31;100750.06;4507630;28;20037;-61
2023/06/22 08:48:13;;;;;;;4.22;3.83;;;;;;;24.25;66.68;100754.22;4507796;28;20049;-61
2023/06/22 08:50:23;;;;;;;4.07;3.63;;;;;;;24.21;66.67;100745.53;4506490;28;21085;-61
2023/06/22 08:52:34;;;;;;;4.10;3.70;;;;;;;24.24;65.92;100744.75;4506044;28;20048;-61
2023/06/22 08:54:45;;;;;;;3.67;3.30;;;;;;;24.24;65.88;100741.88;4509960;28;20045;-61
2023/06/22 08:56:55;;;;;;;3.20;2.90;;;;;;;24.29;65.75;100744.38;4508291;28;20108;-61
2023/06/22 08:59:07;;;;;;;3.10;2.80;;;;;;;24.26;65.37;100738.59;4507830;28;20481;-61
2023/06/22 09:01:18;;;;;;;2.58;2.38;;;;;;;24.28;65.55;100736.13;4508825;28;20041;-61
2023/06/22 09:03:28;;;;;;;2.80;2.60;;;;;;;24.23;65.74;100728.66;4508655;28;20037;-61
2023/06/22 09:05:39;;;;;;;2.80;2.60;;;;;;;24.24;66.06;100724.56;4509102;28;20038;-61
2023/06/22 09:07:49;;;;;;;2.60;2.40;;;;;;;24.25;65.67;100731.97;4508738;28;20033;-62
2023/06/22 09:10:00;;;;;;;2.38;2.17;;;;;;;24.27;64.91;100735.31;4507012;28;20038;-62
2023/06/22 09:12:10;;;;;;;2.30;2.10;;;;;;;24.24;63.69;100720.84;4513400;28;20053;-62
2023/06/22 09:14:21;;;;;;;2.92;2.30;;;;;;;24.22;63.40;100721.22;4508974;28;20041;-61
2023/06/22 09:16:31;;;;;;;2.28;1.95;;;;;;;24.22;62.54;100721.22;4511216;28;20818;-61
2023/06/22 09:18:42;;;;;;;2.35;2.15;;;;;;;24.21;62.41;100725.34;4496267;28;20040;-62
2023/06/22 09:20:52;;;;;;;2.20;2.00;;;;;;;24.19;62.11;100709.63;4507499;28;20049;-61
2023/06/22 09:23:03;;;;;;;2.17;1.98;;;;;;;24.25;61.67;100713.84;4497223;28;20042;-61
2023/06/22 09:25:13;;;;;;;2.20;2.00;;;;;;;24.24;61.42;100710.13;4505646;28;20069;-62
2023/06/22 09:27:24;;;;;;;1.98;1.77;;;;;;;24.21;61.56;100702.25;4522644;28;20045;-62
2023/06/22 09:29:34;;;;;;;4.57;1.65;;;;;;;24.20;61.79;100694.81;4513034;28;20030;-61
2023/06/22 09:31:45;;;;;;;1.95;1.80;;;;;;;24.20;61.57;100689.03;4509529;28;20457;-61
2023/06/22 09:33:55;;;;;;;1.67;1.58;;;;;;;24.24;60.54;100681.28;4507926;28;20072;-62
2023/06/22 09:36:09;;;;;;;2.00;1.77;;;;;;;24.26;60.01;100675.94;4508205;28;20041;-62
2023/06/22 09:38:19;;;;;;;2.03;1.70;;;;;;;24.29;59.00;100663.63;4525260;28;20033;-62
2023/06/22 09:40:32;;;;;;;2.53;1.90;;;;;;;24.27;58.39;100668.97;4513039;28;20038;-64
2023/06/22 09:42:43;;;;;;;2.20;1.80;;;;;;;24.26;58.03;100670.16;4510639;28;20950;-62
2023/06/22 09:44:53;;;;;;;2.25;1.80;;;;;;;24.25;57.56;100668.53;4508786;28;20048;-62
2023/06/22 09:47:04;;;;;;;1.98;1.70;;;;;;;24.20;57.64;100659.34;4509987;28;20400;-61
2023/06/22 09:49:14;;;;;;;2.20;1.80;;;;;;;24.04;57.45;100635.66;4513922;28;20037;-61
2023/06/22 09:51:25;;;;;;;2.25;1.50;;;;;;;24.14;57.28;100670.41;4512135;28;20526;-62
2023/06/22 09:53:35;;;;;;;3.88;1.52;;;;;;;24.12;57.00;100669.97;4508882;28;20133;-61
2023/06/22 09:55:46;;;;;;;3.53;1.80;;;;;;;24.11;56.96;100673.25;4511284;28;20080;-62
2023/06/22 09:57:56;;;;;;;3.22;1.75;;;;;;;24.06;56.70;100662.88;4510115;28;20042;-61
2023/06/22 10:00:09;;;;;;;2.40;2.00;;;;;;;24.10;56.64;100669.53;4512503;28;20038;-61
2023/06/22 10:02:19;;;;;;;2.55;1.88;;;;;;;24.13;56.33;100665.88;4511839;28;20041;-61
2023/06/22 10:04:30;;;;;;;2.70;1.85;;;;;;;24.15;56.25;100674.97;4510647;28;20029;-61
2023/06/22 10:06:40;;;;;;;3.42;1.60;;;;;;;24.14;56.18;100664.66;4511210;28;20038;-62
2023/06/22 10:08:51;;;;;;;2.63;1.85;;;;;;;24.14;55.90;100658.88;4510121;28;20025;-61
2023/06/22 10:11:03;;;;;;;2.47;2.00;;;;;;;24.13;55.84;100659.28;4511444;28;21235;-61